Time;durP1;ratioP1;P1;durP2;ratioP2;P2;SDS_P1;SDS_P2;PMS_P1;PMS_P2;Temp;Humidity;BMP_temperature;BMP_pressure;BME280_temperature;BME280_humidity;BME280_pressure;Samples;Min_cycle;Max_cycle;Signal;HPM_P1;HPM_P2
2020/12/03 00:01:22;;;;;;;18.77;9.13;;;1.40;58.20;;;;;;4937987;29;20031;-76
2020/12/03 00:04:03;;;;;;;15.05;8.18;;;1.50;57.10;;;;;;4954073;29;20059;-77
2020/12/03 00:06:32;;;;;;;13.25;7.53;;;1.60;56.50;;;;;;4937520;29;20069;-78
2020/12/03 00:09:03;;;;;;;16.13;7.75;;;1.60;55.90;;;;;;4954614;29;20174;-76
2020/12/03 00:11:32;;;;;;;16.45;7.63;;;1.60;56.10;;;;;;4954543;29;20031;-78
2020/12/03 00:13:57;;;;;;;14.07;7.50;;;1.60;55.40;;;;;;4956846;29;20031;-78
2020/12/03 00:16:26;;;;;;;;;;;1.70;54.90;;;;;;4937468;29;20042;-78
2020/12/03 00:18:51;;;;;;;13.73;7.40;;;1.70;54.80;;;;;;4954505;29;19911;-77
2020/12/03 00:21:28;;;;;;;;;;;1.70;54.60;;;;;;4937353;29;20035;-77
2020/12/03 00:23:54;;;;;;;17.58;6.93;;;1.80;54.00;;;;;;4956040;29;19941;-78
2020/12/03 00:26:20;;;;;;;;;;;1.80;54.20;;;;;;4955933;28;20090;-78
2020/12/03 00:28:45;;;;;;;14.07;6.65;;;1.80;53.70;;;;;;4955635;29;19918;-78
2020/12/03 00:31:11;;;;;;;;;;;1.90;54.10;;;;;;4939134;29;20035;-76
2020/12/03 00:33:36;;;;;;;12.52;6.85;;;1.80;53.60;;;;;;4941499;29;19958;-77
2020/12/03 00:36:02;;;;;;;;;;;1.90;53.70;;;;;;4958143;29;20027;-78
2020/12/03 00:38:27;;;;;;;13.50;6.15;;;1.80;53.70;;;;;;4940350;29;20382;-80
2020/12/03 00:40:53;;;;;;;;;;;1.80;53.70;;;;;;4957501;29;20070;-78
2020/12/03 00:43:19;;;;;;;22.48;10.75;;;1.80;53.40;;;;;;4938737;29;19910;-79
2020/12/03 00:45:46;;;;;;;;;;;1.80;53.50;;;;;;4956577;29;20388;-78
2020/12/03 00:48:13;;;;;;;30.02;10.48;;;1.80;53.80;;;;;;4955900;29;19922;-78
2020/12/03 00:50:38;;;;;;;19.10;9.20;;;1.80;53.70;;;;;;4938965;29;20058;-79
2020/12/03 00:53:04;;;;;;;;;;;1.80;54.20;;;;;;4956833;29;20423;-78
2020/12/03 00:55:30;;;;;;;28.70;12.90;;;1.90;54.00;;;;;;4956028;29;19906;-78
2020/12/03 00:57:55;;;;;;;;;;;1.80;54.30;;;;;;4940084;29;20086;-78
2020/12/03 01:00:22;;;;;;;21.88;9.93;;;1.80;54.10;;;;;;4955657;29;19914;-80
2020/12/03 01:02:48;;;;;;;25.27;10.68;;;1.80;54.30;;;;;;4955735;29;20030;-78
2020/12/03 01:05:16;;;;;;;21.63;10.55;;;1.80;54.10;;;;;;4938084;29;20086;-78
2020/12/03 01:07:42;;;;;;;16.63;8.68;;;1.70;54.30;;;;;;4956166;29;20110;-79
2020/12/03 01:10:12;;;;;;;;;;;1.70;53.60;;;;;;4939297;29;20164;-79
2020/12/03 01:12:38;;;;;;;13.13;7.35;;;1.70;53.70;;;;;;4941126;29;20038;-79
2020/12/03 01:15:04;;;;;;;;;;;1.80;53.50;;;;;;4956038;29;20400;-79
2020/12/03 01:17:29;;;;;;;13.27;6.97;;;1.70;53.20;;;;;;4956281;29;19907;-78
2020/12/03 01:19:55;;;;;;;;;;;1.80;52.80;;;;;;4957610;29;20028;-79
2020/12/03 01:22:21;;;;;;;12.57;6.75;;;1.90;51.80;;;;;;4946489;29;19910;-78
2020/12/03 01:24:46;;;;;;;;;;;2.00;51.50;;;;;;4954402;29;20466;-78
2020/12/03 01:27:12;;;;;;;10.88;5.43;;;2.10;51.00;;;;;;4953370;29;20331;-78
2020/12/03 01:29:39;;;;;;;;;;;2.10;49.60;;;;;;4936431;29;20561;-78
2020/12/03 01:32:06;;;;;;;8.80;4.20;;;2.10;49.30;;;;;;4936361;29;19965;-78
2020/12/03 01:34:31;;;;;;;11.25;5.60;;;2.20;48.90;;;;;;4954706;29;20862;-79
2020/12/03 01:36:57;;;;;;;;;;;2.30;49.10;;;;;;4953677;28;20035;-77
2020/12/03 01:39:23;;;;;;;9.70;4.88;;;2.30;49.30;;;;;;4952892;29;19922;-77
2020/12/03 01:41:49;;;;;;;;;;;2.30;48.60;;;;;;4953389;29;20080;-77
2020/12/03 01:44:16;;;;;;;9.10;4.35;;;2.30;48.80;;;;;;4937353;29;19910;-78
2020/12/03 01:46:42;;;;;;;10.25;5.85;;;2.30;48.50;;;;;;4936317;29;20034;-77
2020/12/03 01:49:17;;;;;;;;;;;2.30;48.70;;;;;;4938273;29;20051;-80
2020/12/03 01:51:49;;;;;;;10.20;5.10;;;2.30;48.60;;;;;;4958669;29;19918;-79
2020/12/03 01:54:19;;;;;;;11.45;5.32;;;2.30;48.50;;;;;;4938362;29;20042;-78
2020/12/03 01:57:03;;;;;;;12.07;5.65;;;2.30;48.70;;;;;;4952831;29;20095;-77
2020/12/03 01:59:38;;;;;;;10.82;5.50;;;2.30;48.60;;;;;;4955181;29;20110;-79
2020/12/03 02:02:06;;;;;;;14.77;6.32;;;2.30;48.80;;;;;;4939929;29;20041;-79
2020/12/03 02:04:32;;;;;;;10.57;5.45;;;2.40;48.90;;;;;;4957039;29;20023;-79
2020/12/03 02:07:00;;;;;;;;;;;2.30;49.20;;;;;;4940279;29;20054;-80
2020/12/03 02:09:25;;;;;;;;;;;2.30;49.50;;;;;;4959558;29;19957;-79
2020/12/03 02:11:51;;;;;;;13.73;6.55;;;2.20;49.90;;;;;;4940273;29;20020;-79
2020/12/03 02:14:16;;;;;;;;;;;2.20;49.60;;;;;;4941014;29;20519;-80
2020/12/03 02:16:42;;;;;;;12.60;6.30;;;2.20;49.70;;;;;;4957377;29;19906;-79
2020/12/03 02:19:21;;;;;;;;;;;2.20;50.00;;;;;;4940402;29;20041;-79
2020/12/03 02:21:59;;;;;;;10.52;5.65;;;2.20;49.60;;;;;;4957361;29;19917;-79
2020/12/03 02:24:35;;;;;;;11.70;7.03;;;2.10;50.20;;;;;;4958216;29;20054;-79
2020/12/03 02:27:01;;;;;;;14.50;6.57;;;2.10;50.30;;;;;;4940523;29;20118;-79
2020/12/03 02:29:27;;;;;;;14.77;6.82;;;2.20;49.60;;;;;;4957460;29;20054;-79
2020/12/03 02:31:54;;;;;;;11.98;5.88;;;2.20;49.80;;;;;;4940367;29;20571;-79
2020/12/03 02:34:19;;;;;;;13.85;6.53;;;2.00;50.40;;;;;;4941793;29;20122;-79
2020/12/03 02:36:52;;;;;;;;;;;2.10;50.40;;;;;;4955679;29;20083;-78
2020/12/03 02:39:19;;;;;;;11.00;5.50;;;2.00;49.80;;;;;;4954108;29;20298;-78
2020/12/03 02:41:44;;;;;;;12.63;6.63;;;1.90;49.80;;;;;;4952668;29;20365;-77
2020/12/03 02:44:10;;;;;;;;;;;2.00;49.40;;;;;;4939774;29;20034;-79
2020/12/03 02:46:35;;;;;;;13.73;6.53;;;2.10;49.00;;;;;;4955744;29;19910;-78
2020/12/03 02:49:01;;;;;;;;;;;2.10;48.80;;;;;;4957378;28;20078;-80
2020/12/03 02:51:27;;;;;;;11.55;5.50;;;2.10;48.50;;;;;;4944560;29;20390;-78
2020/12/03 02:53:52;;;;;;;;;;;2.20;48.00;;;;;;4958641;29;20491;-78
2020/12/03 02:56:18;;;;;;;10.80;5.47;;;2.20;47.90;;;;;;4957993;29;19906;-79
2020/12/03 02:58:43;;;;;;;;;;;2.20;47.70;;;;;;4940334;29;20070;-77
2020/12/03 03:01:09;;;;;;;11.10;5.38;;;2.20;47.20;;;;;;4938417;29;20409;-76
2020/12/03 03:03:34;;;;;;;;;;;2.20;46.40;;;;;;4939347;29;20038;-77
2020/12/03 03:06:00;;;;;;;7.68;4.20;;;2.40;45.90;;;;;;4957317;29;19917;-80
2020/12/03 03:08:26;;;;;;;;;;;2.40;45.40;;;;;;4953551;29;20039;-79
2020/12/03 03:10:52;;;;;;;8.93;4.53;;;2.30;45.20;;;;;;4960154;29;19906;-77
2020/12/03 03:13:18;;;;;;;9.27;5.15;;;2.40;45.50;;;;;;4938712;29;20035;-77
2020/12/03 03:15:44;;;;;;;10.35;4.80;;;2.30;46.10;;;;;;4940339;29;20035;-78
2020/12/03 03:18:10;;;;;;;;;;;2.30;45.80;;;;;;4956710;29;20031;-77
2020/12/03 03:20:36;;;;;;;11.45;5.63;;;2.30;46.20;;;;;;4958267;29;19918;-78
2020/12/03 03:23:02;;;;;;;9.82;4.65;;;2.40;45.90;;;;;;4960934;29;20035;-79
2020/12/03 03:25:27;;;;;;;;;;;2.30;46.00;;;;;;4958347;29;20035;-78
2020/12/03 03:27:53;;;;;;;10.18;5.10;;;2.40;45.40;;;;;;4940955;29;19922;-78
2020/12/03 03:30:20;;;;;;;;;;;2.40;45.90;;;;;;4940386;29;20531;-78
2020/12/03 03:32:46;;;;;;;11.37;5.57;;;2.50;45.00;;;;;;4939620;29;19914;-79
2020/12/03 03:35:16;;;;;;;9.98;5.15;;;2.40;45.30;;;;;;4939468;29;20263;-79
2020/12/03 03:37:42;;;;;;;8.65;4.15;;;2.50;45.20;;;;;;4958470;29;20027;-79
2020/12/03 03:40:07;;;;;;;;;;;2.50;45.10;;;;;;4960316;29;20191;-78
2020/12/03 03:42:33;;;;;;;9.40;4.43;;;2.50;45.30;;;;;;4960657;29;19922;-78
2020/12/03 03:44:58;;;;;;;;;;;2.50;45.80;;;;;;4944469;29;20078;-79
2020/12/03 03:47:24;;;;;;;9.23;4.65;;;2.50;45.00;;;;;;4961121;29;19906;-79
2020/12/03 03:49:49;;;;;;;;;;;2.50;45.10;;;;;;4962398;28;20059;-75
2020/12/03 03:52:15;;;;;;;8.82;4.40;;;2.50;45.40;;;;;;4961560;29;19912;-78
2020/12/03 03:54:41;;;;;;;;;;;2.50;45.30;;;;;;4962347;29;20035;-77
2020/12/03 03:57:06;;;;;;;10.07;4.65;;;2.60;44.80;;;;;;4944289;29;20306;-77
2020/12/03 03:59:32;;;;;;;;;;;2.50;44.90;;;;;;4961894;28;20027;-77
2020/12/03 04:01:57;;;;;;;10.65;4.68;;;2.60;45.00;;;;;;4943372;29;20007;-77
2020/12/03 04:04:23;;;;;;;;;;;2.60;45.00;;;;;;4962723;29;20082;-77
2020/12/03 04:06:49;;;;;;;11.25;5.28;;;2.60;44.80;;;;;;4962138;29;19907;-78
2020/12/03 04:09:14;;;;;;;;;;;2.60;44.90;;;;;;4962816;29;20040;-76
2020/12/03 04:11:42;;;;;;;12.07;5.90;;;2.60;45.20;;;;;;4945180;29;19906;-76
2020/12/03 04:14:08;;;;;;;13.93;6.38;;;2.60;45.90;;;;;;4960347;29;20086;-79
2020/12/03 04:16:33;;;;;;;;;;;2.60;45.80;;;;;;4946504;29;20034;-79
2020/12/03 04:18:59;;;;;;;17.48;7.18;;;2.50;45.60;;;;;;4945880;29;19957;-80
2020/12/03 04:21:24;;;;;;;;;;;2.60;45.60;;;;;;4954652;29;20122;-80
2020/12/03 04:23:50;;;;;;;19.52;7.30;;;2.70;44.90;;;;;;4953263;29;19910;-80
2020/12/03 04:26:15;;;;;;;;;;;2.60;44.80;;;;;;4968761;29;20035;-80
2020/12/03 04:28:41;;;;;;;15.15;5.65;;;2.70;44.40;;;;;;4943533;29;20454;-80
2020/12/03 04:31:07;;;;;;;;;;;2.70;44.20;;;;;;4963749;29;20019;-79
2020/12/03 04:33:32;;;;;;;13.45;6.50;;;2.80;43.90;;;;;;4965743;29;19910;-79
2020/12/03 04:35:58;;;;;;;;;;;2.80;43.90;;;;;;4953325;29;20019;-80
2020/12/03 04:38:24;;;;;;;20.80;7.65;;;2.80;43.80;;;;;;4949361;29;20049;-80
2020/12/03 04:40:50;;;;;;;;;;;2.80;43.10;;;;;;4950353;29;20047;-80
2020/12/03 04:43:19;;;;;;;22.95;8.80;;;2.80;42.90;;;;;;4945722;29;19917;-77
2020/12/03 04:45:51;;;;;;;21.15;9.60;;;2.80;43.00;;;;;;4948592;29;20067;-80
2020/12/03 04:48:47;;;;;;;14.38;7.40;;;2.80;43.20;;;;;;4954094;28;20039;-80
2020/12/03 04:51:31;;;;;;;12.38;6.78;;;2.80;43.30;;;;;;4973431;28;20050;-80
2020/12/03 04:54:20;;;;;;;10.30;5.07;;;2.80;43.00;;;;;;4975010;28;20102;-79
2020/12/03 04:56:57;;;;;;;8.70;4.55;;;2.60;43.30;;;;;;4975166;28;20074;-81
2020/12/03 05:00:10;;;;;;;10.55;5.40;;;2.60;43.10;;;;;;4992468;28;20030;-80
2020/12/03 05:03:02;;;;;;;9.07;4.57;;;2.60;42.60;;;;;;4896277;28;20102;-80
2020/12/03 05:05:39;;;;;;;7.38;3.83;;;2.70;42.20;;;;;;4969064;28;20126;-81
2020/12/03 05:08:09;;;;;;;8.27;4.38;;;2.60;42.40;;;;;;4981918;28;20077;-82
2020/12/03 05:10:38;;;;;;;8.77;4.22;;;2.70;42.60;;;;;;4965007;28;20034;-79
2020/12/03 05:13:12;;;;;;;10.98;5.80;;;2.70;42.30;;;;;;4965321;28;20031;-79
2020/12/03 05:15:38;;;;;;;8.63;4.05;;;2.70;41.90;;;;;;4965279;28;20057;-80
2020/12/03 05:18:21;;;;;;;;;;;2.70;42.00;;;;;;4965195;28;20503;-80
2020/12/03 05:20:53;;;;;;;10.70;4.63;;;2.70;41.60;;;;;;4963325;28;20374;-79
2020/12/03 05:23:20;;;;;;;10.45;5.22;;;2.70;41.60;;;;;;4965867;28;20163;-79
2020/12/03 05:25:47;;;;;;;7.55;4.00;;;2.70;41.20;;;;;;4964332;28;20057;-80
2020/12/03 05:28:27;;;;;;;7.85;3.88;;;2.80;41.40;;;;;;4983206;28;20039;-79
2020/12/03 05:30:57;;;;;;;8.43;3.70;;;2.70;41.50;;;;;;4986631;28;20034;-79
2020/12/03 05:33:23;;;;;;;7.03;3.90;;;2.70;41.30;;;;;;4970676;28;20042;-80
2020/12/03 05:35:50;;;;;;;7.88;3.53;;;2.70;41.60;;;;;;4973152;28;20037;-79
2020/12/03 05:38:22;;;;;;;8.07;3.83;;;2.80;41.30;;;;;;4972702;28;20110;-81
2020/12/03 05:41:01;;;;;;;6.70;3.33;;;2.80;41.30;;;;;;4991972;28;20058;-81
2020/12/03 05:43:28;;;;;;;8.02;3.42;;;2.90;41.20;;;;;;4991070;28;20023;-80
2020/12/03 05:45:55;;;;;;;9.57;4.07;;;3.00;40.90;;;;;;4988797;28;20109;-79
2020/12/03 05:48:21;;;;;;;8.85;4.07;;;3.00;40.80;;;;;;4965502;28;20011;-80
2020/12/03 05:50:47;;;;;;;;;;;3.00;40.80;;;;;;4971937;28;20055;-80
2020/12/03 05:53:20;;;;;;;11.40;4.88;;;3.00;41.00;;;;;;4963638;29;19906;-79
2020/12/03 05:55:47;;;;;;;8.20;4.20;;;3.00;40.50;;;;;;4958252;29;20019;-79
2020/12/03 05:58:31;;;;;;;7.60;3.65;;;2.90;40.80;;;;;;4940328;29;20089;-79
2020/12/03 06:01:20;;;;;;;9.75;4.53;;;2.90;40.70;;;;;;4940187;29;20035;-79
2020/12/03 06:04:03;;;;;;;10.05;4.30;;;2.90;40.70;;;;;;4956520;29;20032;-79
2020/12/03 06:06:53;;;;;;;9.15;4.03;;;3.00;40.60;;;;;;4940160;29;20779;-79
2020/12/03 06:09:25;;;;;;;8.57;4.00;;;3.10;40.10;;;;;;4957460;29;20448;-79
2020/12/03 06:12:05;;;;;;;8.63;4.20;;;3.20;40.10;;;;;;4943767;29;20041;-79
2020/12/03 06:14:52;;;;;;;7.78;3.67;;;3.10;39.50;;;;;;4956620;29;20368;-78
2020/12/03 06:17:44;;;;;;;7.53;3.45;;;3.10;39.40;;;;;;4939517;29;20038;-79
2020/12/03 06:20:28;;;;;;;6.90;3.10;;;3.20;38.50;;;;;;4892105;29;20054;-79
2020/12/03 06:23:01;;;;;;;8.98;3.80;;;3.30;38.60;;;;;;4938934;28;20027;-78
2020/12/03 06:25:32;;;;;;;8.75;3.55;;;3.30;38.50;;;;;;4938432;29;20027;-78
2020/12/03 06:28:13;;;;;;;10.02;4.15;;;3.30;37.80;;;;;;4955816;29;20031;-78
2020/12/03 06:30:46;;;;;;;7.20;3.28;;;3.30;37.80;;;;;;4936665;29;20089;-77
2020/12/03 06:33:14;;;;;;;7.65;3.42;;;3.30;37.70;;;;;;4953953;29;20551;-79
2020/12/03 06:35:43;;;;;;;7.47;3.22;;;3.40;37.60;;;;;;4938435;29;20035;-78
2020/12/03 06:38:20;;;;;;;6.53;2.90;;;3.50;37.40;;;;;;4943253;29;20035;-80
2020/12/03 06:40:59;;;;;;;6.60;2.90;;;3.60;37.30;;;;;;4948808;29;20049;-80
2020/12/03 06:43:34;;;;;;;6.47;3.03;;;3.70;37.00;;;;;;4962362;29;20083;-80
2020/12/03 06:46:24;;;;;;;5.63;3.00;;;3.70;37.00;;;;;;4955618;29;20543;-79
2020/12/03 06:48:54;;;;;;;8.18;3.35;;;3.80;37.40;;;;;;4955521;28;20054;-77
2020/12/03 06:51:25;;;;;;;7.03;3.58;;;3.70;37.90;;;;;;4937512;29;20432;-80
2020/12/03 06:54:01;;;;;;;7.10;3.45;;;3.70;38.10;;;;;;4976803;28;20036;-82
2020/12/03 06:57:04;;;;;;;6.57;3.35;;;3.80;37.60;;;;;;4973378;28;20035;-81
2020/12/03 07:00:08;;;;;;;7.07;3.65;;;3.90;37.60;;;;;;4955012;29;20015;-80
2020/12/03 07:02:41;;;;;;;6.70;3.10;;;3.90;38.00;;;;;;4957827;28;20027;-83
2020/12/03 07:05:13;;;;;;;6.70;3.50;;;4.00;38.10;;;;;;4953300;29;20039;-79
2020/12/03 07:08:02;;;;;;;8.88;4.30;;;4.00;37.50;;;;;;4957257;29;20021;-81
2020/12/03 07:11:11;;;;;;;8.98;3.88;;;4.10;37.50;;;;;;4960577;28;20047;-80
2020/12/03 07:13:43;;;;;;;6.82;3.00;;;4.10;37.70;;;;;;4944480;29;20031;-80
2020/12/03 07:16:27;;;;;;;7.47;4.15;;;4.20;37.40;;;;;;4940513;29;20031;-78
2020/12/03 07:18:59;;;;;;;7.25;3.55;;;4.30;37.40;;;;;;4961894;29;20031;-79
2020/12/03 07:22:10;;;;;;;6.63;3.80;;;4.30;37.30;;;;;;4933710;29;20039;-79
2020/12/03 07:24:40;;;;;;;7.05;3.30;;;4.30;37.60;;;;;;4894144;29;20048;-79
2020/12/03 07:27:09;;;;;;;5.53;3.15;;;4.40;37.70;;;;;;4937497;29;20031;-79
2020/12/03 07:29:58;;;;;;;7.97;4.25;;;4.40;37.40;;;;;;4920864;29;20496;-78
2020/12/03 07:32:33;;;;;;;6.43;3.35;;;4.40;37.50;;;;;;4955537;29;20555;-80
2020/12/03 07:35:27;;;;;;;5.07;2.47;;;4.50;37.30;;;;;;4938370;29;20031;-78
2020/12/03 07:38:15;;;;;;;7.13;2.83;;;4.70;36.90;;;;;;4958499;29;20031;-79
2020/12/03 07:40:42;;;;;;;7.30;3.13;;;4.60;37.40;;;;;;4959015;29;20038;-78
2020/12/03 07:43:20;;;;;;;7.43;3.17;;;4.70;37.00;;;;;;4942738;29;20034;-79
2020/12/03 07:45:49;;;;;;;6.28;3.17;;;4.80;36.80;;;;;;4959575;29;20034;-79
2020/12/03 07:48:32;;;;;;;6.18;3.25;;;4.90;37.00;;;;;;4965051;29;20024;-79
2020/12/03 07:51:18;;;;;;;6.10;3.33;;;4.90;37.00;;;;;;4941466;29;20062;-78
2020/12/03 07:53:44;;;;;;;5.50;2.95;;;5.00;37.00;;;;;;4940724;29;20177;-78
2020/12/03 07:56:31;;;;;;;;;;;4.90;36.60;;;;;;4941338;29;20027;-79
2020/12/03 07:59:22;;;;;;;6.35;3.15;;;5.00;36.60;;;;;;4941097;29;19911;-79
2020/12/03 08:01:48;;;;;;;4.97;2.63;;;5.10;36.30;;;;;;4941364;29;20078;-79
2020/12/03 08:04:17;;;;;;;;;;;5.40;35.60;;;;;;4941831;29;20415;-80
2020/12/03 08:07:00;;;;;;;6.18;2.97;;;5.40;34.60;;;;;;4958631;29;19929;-79
2020/12/03 08:09:41;;;;;;;5.15;2.45;;;5.50;34.20;;;;;;4941834;29;20074;-79
2020/12/03 08:12:19;;;;;;;6.05;2.53;;;5.50;33.50;;;;;;4943502;29;20047;-79
2020/12/03 08:14:54;;;;;;;8.02;3.28;;;5.60;33.50;;;;;;4942879;29;20035;-79
2020/12/03 08:17:23;;;;;;;7.78;3.15;;;5.60;33.50;;;;;;4940340;29;20479;-79
2020/12/03 08:19:54;;;;;;;5.47;3.00;;;5.60;33.30;;;;;;4942275;29;20043;-79
2020/12/03 08:22:36;;;;;;;11.38;3.33;;;5.60;33.70;;;;;;4960702;29;20082;-79
2020/12/03 08:25:15;;;;;;;5.53;2.70;;;5.60;33.40;;;;;;4960686;29;20051;-79
2020/12/03 08:27:41;;;;;;;6.03;3.00;;;5.70;33.40;;;;;;4961090;29;20563;-80
2020/12/03 08:30:38;;;;;;;7.18;2.85;;;5.70;33.10;;;;;;4961502;29;20035;-80
2020/12/03 08:33:06;;;;;;;6.10;3.13;;;5.90;32.80;;;;;;4941975;29;20118;-78
2020/12/03 08:35:32;;;;;;;6.05;2.97;;;5.90;32.50;;;;;;4960496;29;20246;-80
2020/12/03 08:38:01;;;;;;;;;;;5.90;32.70;;;;;;4945476;29;20558;-79
2020/12/03 08:40:29;;;;;;;5.03;1.95;;;6.00;32.50;;;;;;4957655;29;20355;-79
2020/12/03 08:42:56;;;;;;;4.78;2.53;;;6.00;32.80;;;;;;4957889;29;20027;-79
2020/12/03 08:45:22;;;;;;;4.97;2.60;;;6.20;32.60;;;;;;4940426;29;20039;-80
2020/12/03 08:47:52;;;;;;;6.18;2.60;;;6.20;32.60;;;;;;4958425;28;20067;-79
2020/12/03 08:50:18;;;;;;;23.13;11.02;;;6.30;32.10;;;;;;4935643;29;20072;-79
2020/12/03 08:52:44;;;;;;;;;;;6.40;31.80;;;;;;4958875;29;20412;-79
2020/12/03 08:55:11;;;;;;;8.80;4.82;;;6.30;31.50;;;;;;4940185;29;19921;-80
2020/12/03 08:57:43;;;;;;;8.80;4.20;;;6.40;31.30;;;;;;4959460;29;20035;-79
2020/12/03 09:00:13;;;;;;;5.70;2.85;;;6.40;31.80;;;;;;4941821;29;20404;-80
2020/12/03 09:02:41;;;;;;;9.82;4.88;;;6.40;31.30;;;;;;4945620;29;20381;-79
2020/12/03 09:05:07;;;;;;;10.60;5.43;;;6.60;31.50;;;;;;4958666;29;20511;-79
2020/12/03 09:07:41;;;;;;;6.53;3.85;;;6.60;31.40;;;;;;4959202;29;20035;-79
2020/12/03 09:10:08;;;;;;;7.22;3.70;;;6.60;31.70;;;;;;4958901;29;20408;-78
2020/12/03 09:12:36;;;;;;;6.45;3.63;;;6.60;32.10;;;;;;4959520;29;20024;-79
2020/12/03 09:15:05;;;;;;;9.18;4.55;;;6.50;32.40;;;;;;4940878;29;20381;-79
2020/12/03 09:17:34;;;;;;;8.68;4.45;;;6.40;32.70;;;;;;4958158;29;20027;-80
2020/12/03 09:20:08;;;;;;;10.75;4.38;;;6.30;32.80;;;;;;4941825;29;20086;-80
2020/12/03 09:22:35;;;;;;;8.68;4.47;;;6.20;33.80;;;;;;4941873;29;20043;-80
2020/12/03 09:25:05;;;;;;;9.75;5.15;;;6.10;33.90;;;;;;4944522;29;20050;-79
2020/12/03 09:27:33;;;;;;;8.65;4.63;;;6.10;34.50;;;;;;4943397;29;20054;-80
2020/12/03 09:30:03;;;;;;;9.35;4.20;;;6.00;34.80;;;;;;4938078;29;20381;-78
2020/12/03 09:32:30;;;;;;;8.70;4.45;;;6.00;34.70;;;;;;4958296;29;20059;-79
2020/12/03 09:34:57;;;;;;;10.20;5.40;;;6.00;35.20;;;;;;4958561;29;20086;-81
2020/12/03 09:37:23;;;;;;;10.68;6.00;;;5.90;35.30;;;;;;4941032;29;20034;-79
2020/12/03 09:39:48;;;;;;;;;;;5.90;35.70;;;;;;4958968;29;20037;-79
2020/12/03 09:42:15;;;;;;;13.68;5.90;;;6.00;35.90;;;;;;4958225;29;19993;-79
2020/12/03 09:44:46;;;;;;;10.68;5.95;;;5.90;36.20;;;;;;4957886;29;20752;-79
2020/12/03 09:47:18;;;;;;;11.82;5.78;;;5.70;36.80;;;;;;4958339;29;20440;-80
2020/12/03 09:49:45;;;;;;;10.60;5.63;;;5.60;37.10;;;;;;4961680;28;20059;-79
2020/12/03 09:52:12;;;;;;;12.77;6.13;;;5.50;37.50;;;;;;4947802;29;20075;-80
2020/12/03 09:54:39;;;;;;;15.90;7.30;;;5.50;38.00;;;;;;4957779;29;20488;-80
2020/12/03 09:57:10;;;;;;;26.98;15.35;;;5.40;38.30;;;;;;4944810;29;20055;-81
2020/12/03 09:59:37;;;;;;;27.60;11.75;;;5.50;38.50;;;;;;4922411;29;20122;-79
2020/12/03 10:02:15;;;;;;;14.38;7.75;;;5.40;38.50;;;;;;4933574;29;20122;-78
2020/12/03 10:05:13;;;;;;;242.77;114.32;;;5.50;39.10;;;;;;4937019;28;20035;-79
2020/12/03 10:07:48;;;;;;;13.35;6.25;;;5.50;39.00;;;;;;4939263;29;20062;-79
2020/12/03 10:10:25;;;;;;;17.90;8.52;;;5.60;38.90;;;;;;4917129;29;20111;-78
2020/12/03 10:13:06;;;;;;;11.48;6.15;;;5.70;38.90;;;;;;4932800;29;20036;-80
2020/12/03 10:15:32;;;;;;;15.65;7.93;;;5.60;38.70;;;;;;4920748;29;20087;-78
2020/12/03 10:18:08;;;;;;;;;;;5.60;38.60;;;;;;4919130;29;20556;-79
2020/12/03 10:20:36;;;;;;;156.48;69.00;;;5.70;38.80;;;;;;4934326;29;19926;-79
2020/12/03 10:23:10;;;;;;;26.20;14.32;;;5.60;38.90;;;;;;4933888;29;20030;-78
2020/12/03 10:25:40;;;;;;;36.45;18.52;;;5.70;38.80;;;;;;4933460;29;20118;-79
2020/12/03 10:28:17;;;;;;;30.70;17.27;;;5.80;38.10;;;;;;4938704;29;20500;-78
2020/12/03 10:30:43;;;;;;;28.80;13.68;;;5.80;38.50;;;;;;4953907;29;20102;-79
2020/12/03 10:33:14;;;;;;;34.33;16.50;;;5.80;38.60;;;;;;4952481;29;20038;-78
2020/12/03 10:35:48;;;;;;;27.42;15.27;;;5.70;39.00;;;;;;4953677;29;20027;-81
2020/12/03 10:38:22;;;;;;;28.13;14.35;;;5.80;39.00;;;;;;4955713;29;20078;-79
2020/12/03 10:40:55;;;;;;;20.20;11.63;;;5.80;38.90;;;;;;4954395;29;20099;-78
2020/12/03 10:43:27;;;;;;;14.88;8.40;;;5.70;39.40;;;;;;4941436;29;20094;-80
2020/12/03 10:45:56;;;;;;;25.90;13.00;;;5.70;39.40;;;;;;4959870;29;20031;-81
2020/12/03 10:48:25;;;;;;;25.52;12.45;;;5.70;39.70;;;;;;4962349;29;20038;-80
2020/12/03 10:50:58;;;;;;;24.73;11.10;;;5.70;39.50;;;;;;4979564;28;20122;-79
2020/12/03 10:53:29;;;;;;;23.52;11.00;;;5.80;38.40;;;;;;4980388;28;20031;-81
2020/12/03 10:56:08;;;;;;;23.33;10.38;;;5.90;38.50;;;;;;4988629;28;20023;-81
2020/12/03 10:58:35;;;;;;;15.90;7.53;;;6.00;38.20;;;;;;4992740;28;20035;-82
2020/12/03 11:01:06;;;;;;;18.20;7.93;;;6.10;38.90;;;;;;4992394;28;20018;-82
2020/12/03 11:03:35;;;;;;;17.17;8.00;;;6.30;39.30;;;;;;4993787;28;20034;-81
2020/12/03 11:06:01;;;;;;;19.27;8.70;;;6.50;38.90;;;;;;4991100;28;20023;-82
2020/12/03 11:08:34;;;;;;;;;;;6.40;39.40;;;;;;4988536;28;20065;-81
2020/12/03 11:11:00;;;;;;;18.45;7.00;;;6.50;39.10;;;;;;4988066;28;19984;-81
2020/12/03 11:13:25;;;;;;;;;;;6.50;39.30;;;;;;5009531;28;20025;-81
2020/12/03 11:16:00;;;;;;;12.48;7.28;;;6.60;39.20;;;;;;4993697;28;19980;-80
2020/12/03 11:18:27;;;;;;;17.23;8.32;;;6.60;39.50;;;;;;4991879;28;20058;-81
2020/12/03 11:20:59;;;;;;;17.88;9.55;;;6.70;39.50;;;;;;4996629;28;20097;-80
2020/12/03 11:23:29;;;;;;;19.77;9.40;;;6.80;39.10;;;;;;5012204;28;20089;-81
2020/12/03 11:26:13;;;;;;;17.27;7.72;;;6.90;39.50;;;;;;4991010;28;20380;-80
2020/12/03 11:28:40;;;;;;;19.75;8.63;;;7.10;39.50;;;;;;4998644;28;20038;-79
2020/12/03 11:31:08;;;;;;;15.98;7.22;;;7.10;39.40;;;;;;4988685;28;20038;-77
2020/12/03 11:33:40;;;;;;;15.85;7.78;;;7.20;40.20;;;;;;4991978;28;20126;-77
2020/12/03 11:36:09;;;;;;;17.80;8.65;;;7.00;40.20;;;;;;4978056;28;20022;-77
2020/12/03 11:38:35;;;;;;;15.02;7.40;;;7.00;40.30;;;;;;4975775;28;20041;-78
2020/12/03 11:44:11;;;;;;;14.48;7.50;;;6.90;41.00;;;;;;4970444;28;20042;-80
2020/12/03 11:49:15;;;;;;;15.52;7.85;;;6.70;41.50;;;;;;4982408;28;20051;-79
2020/12/03 11:51:40;;;;;;;13.27;7.43;;;6.50;42.50;;;;;;4960521;29;20034;-76
2020/12/03 11:54:07;;;;;;;;;;;6.40;42.70;;;;;;4967686;29;20038;-80
2020/12/03 11:56:35;;;;;;;18.20;8.63;;;6.40;43.00;;;;;;4955427;29;20562;-79
2020/12/03 11:59:15;;;;;;;14.20;7.20;;;6.30;42.60;;;;;;4954601;29;20034;-78
2020/12/03 12:01:55;;;;;;;13.90;7.50;;;6.50;42.40;;;;;;4948926;29;20034;-79
2020/12/03 12:07:49;;;;;;;18.27;9.18;;;6.40;43.20;;;;;;4976670;29;20031;-81
2020/12/03 12:09:55;;;;;;;22.30;11.32;;;6.40;43.50;;;;;;4968723;29;20034;-80
2020/12/03 12:12:23;;;;;;;16.25;8.65;;;6.40;43.80;;;;;;4959999;29;20059;-80
2020/12/03 12:14:49;;;;;;;20.25;8.85;;;6.40;43.80;;;;;;4976811;29;20027;-80
2020/12/03 12:17:17;;;;;;;;;;;6.50;44.00;;;;;;4959960;29;20031;-79
2020/12/03 12:19:44;;;;;;;20.88;9.43;;;6.40;44.50;;;;;;4972569;29;19918;-80
2020/12/03 12:22:12;;;;;;;20.88;9.82;;;6.40;44.60;;;;;;4970894;28;20016;-81
2020/12/03 12:24:45;;;;;;;19.67;10.15;;;6.50;44.00;;;;;;4974124;29;20034;-82
2020/12/03 12:27:11;;;;;;;24.67;12.63;;;6.40;44.40;;;;;;4971414;29;20498;-78
2020/12/03 12:29:37;;;;;;;18.50;9.73;;;6.40;44.40;;;;;;4956588;28;20051;-79
2020/12/03 12:32:04;;;;;;;;;;;6.30;44.40;;;;;;4953315;29;20491;-80
2020/12/03 12:34:30;;;;;;;20.02;9.02;;;6.20;44.40;;;;;;4971728;29;19944;-78
2020/12/03 12:36:56;;;;;;;23.13;10.77;;;6.10;45.00;;;;;;4971343;29;20031;-79
2020/12/03 12:39:22;;;;;;;;;;;6.00;45.30;;;;;;4956703;29;20023;-80
2020/12/03 12:42:04;;;;;;;15.63;8.13;;;6.10;44.30;;;;;;4959368;29;19907;-80
2020/12/03 12:44:30;;;;;;;17.38;8.45;;;6.10;45.10;;;;;;4968877;29;20055;-78
2020/12/03 12:47:04;;;;;;;19.05;9.45;;;6.10;45.70;;;;;;4949243;29;20024;-79
2020/12/03 12:49:30;;;;;;;17.83;10.00;;;6.10;45.90;;;;;;4966915;28;20061;-80
2020/12/03 12:51:56;;;;;;;16.42;8.15;;;6.10;46.30;;;;;;4994320;28;20070;-79
2020/12/03 12:54:23;;;;;;;;;;;6.00;46.80;;;;;;4994831;28;20495;-82
2020/12/03 12:56:49;;;;;;;;;;;6.10;46.80;;;;;;4990757;28;19966;-80
2020/12/03 12:59:15;;;;;;;18.92;9.02;;;6.00;47.40;;;;;;4987645;28;19953;-79
2020/12/03 13:01:42;;;;;;;;;;;6.00;48.00;;;;;;4987776;28;20022;-80
2020/12/03 13:04:07;;;;;;;25.23;11.33;;;6.00;48.50;;;;;;4987382;28;20184;-81
2020/12/03 13:06:33;;;;;;;;;;;6.10;48.50;;;;;;4990317;28;20053;-80
2020/12/03 13:08:58;;;;;;;24.40;12.73;;;6.00;48.70;;;;;;4987372;28;19921;-79
2020/12/03 13:11:24;;;;;;;20.60;12.70;;;6.00;49.10;;;;;;4985011;28;20495;-79
2020/12/03 13:13:49;;;;;;;;;;;5.90;49.70;;;;;;4984041;28;20035;-80
2020/12/03 13:16:15;;;;;;;16.58;8.70;;;5.80;50.10;;;;;;4984970;28;20546;-79
2020/12/03 13:18:41;;;;;;;;;;;5.70;50.30;;;;;;5006128;28;20011;-78
2020/12/03 13:21:06;;;;;;;25.98;14.82;;;5.70;51.30;;;;;;4985159;28;20378;-80
2020/12/03 13:23:32;;;;;;;;;;;5.70;51.20;;;;;;4986242;28;20092;-80
2020/12/03 13:25:57;;;;;;;14.48;7.30;;;5.60;52.70;;;;;;4982934;28;19977;-79
2020/12/03 13:28:23;;;;;;;15.40;7.78;;;5.70;52.90;;;;;;4985894;28;20042;-81
2020/12/03 13:30:49;;;;;;;16.15;8.32;;;5.80;51.90;;;;;;4992097;28;20051;-81
2020/12/03 13:33:14;;;;;;;;;;;5.70;51.90;;;;;;4986776;28;20022;-81
2020/12/03 13:35:40;;;;;;;21.85;10.90;;;5.70;51.70;;;;;;4986187;28;19906;-81